Time;durP1;ratioP1;P1;durP2;ratioP2;P2;SDS_P1;SDS_P2;PMS_P1;PMS_P2;Temp;Humidity;BMP_temperature;BMP_pressure;BME280_temperature;BME280_humidity;BME280_pressure;Samples;Min_cycle;Max_cycle;Signal;HPM_P1;HPM_P2
2022/04/14 00:01:32;;;;;;;11.55;5.53;;;;;;;2.14;65.12;93833.00;5111434;28;20015;-38
2022/04/14 00:03:58;;;;;;;6.00;5.03;;;;;;;1.84;64.63;93839.94;5111336;28;20103;-37
2022/04/14 00:06:23;;;;;;;10.18;6.63;;;;;;;1.98;64.86;93831.63;5110995;28;20464;-38
2022/04/14 00:08:52;;;;;;;8.77;6.20;;;;;;;2.20;64.08;93848.16;5110081;28;20027;-38
2022/04/14 00:11:17;;;;;;;7.60;5.30;;;;;;;2.24;64.47;93840.50;5111156;28;20008;-38
2022/04/14 00:13:43;;;;;;;10.90;6.85;;;;;;;2.02;65.31;93839.56;5103738;28;20416;-38
2022/04/14 00:16:08;;;;;;;13.02;7.22;;;;;;;1.77;65.20;93840.38;5090919;28;20055;-38
2022/04/14 00:18:34;;;;;;;7.32;5.70;;;;;;;1.78;65.03;93839.13;5090509;28;20038;-38
2022/04/14 00:20:59;;;;;;;6.95;5.38;;;;;;;1.77;65.18;93840.38;5090769;28;20027;-38
2022/04/14 00:23:25;;;;;;;9.32;5.68;;;;;;;1.86;65.27;93832.03;5090720;28;20024;-38
2022/04/14 00:25:51;;;;;;;8.43;5.30;;;;;;;1.77;66.17;93838.41;5090593;28;20064;-38
2022/04/14 00:28:17;;;;;;;9.63;5.97;;;;;;;1.77;66.28;93840.38;5090266;28;20051;-38
2022/04/14 00:30:42;;;;;;;10.45;6.35;;;;;;;1.88;66.28;93835.78;5090328;28;20082;-38
2022/04/14 00:33:08;;;;;;;10.52;6.28;;;;;;;1.90;65.45;93836.03;5090213;28;20073;-38
2022/04/14 00:35:33;;;;;;;11.57;7.15;;;;;;;1.95;65.57;93837.31;5090289;28;20137;-37
2022/04/14 00:37:59;;;;;;;8.93;6.60;;;;;;;1.75;65.62;93818.34;5090442;28;20023;-38
2022/04/14 00:40:24;;;;;;;5.68;4.70;;;;;;;1.83;64.95;93836.47;5103096;28;20019;-37
2022/04/14 00:42:50;;;;;;;11.73;6.07;;;;;;;1.62;65.25;93839.75;5110329;28;20035;-37
2022/04/14 00:45:15;;;;;;;8.68;4.82;;;;;;;1.49;66.47;93842.88;5110576;28;20059;-37
2022/04/14 00:47:41;;;;;;;26.13;13.10;;;;;;;1.58;66.01;93839.97;5110812;28;20055;-37
2022/04/14 00:50:07;;;;;;;23.25;12.02;;;;;;;1.61;65.45;93841.72;5107937;28;20023;-38
2022/04/14 00:52:32;;;;;;;20.40;11.10;;;;;;;1.71;65.05;93836.88;5110386;28;20081;-38
2022/04/14 00:54:58;;;;;;;16.52;9.52;;;;;;;1.38;65.79;93832.63;5110670;28;20520;-38
2022/04/14 00:57:24;;;;;;;13.52;7.72;;;;;;;1.30;67.10;93839.69;5110475;28;20698;-38
2022/04/14 00:59:49;;;;;;;6.63;4.90;;;;;;;1.29;66.82;93840.94;5110364;28;20019;-37
2022/04/14 01:02:15;;;;;;;5.38;2.10;;;;;;;1.19;67.02;93842.28;5110424;28;20016;-38
2022/04/14 01:04:41;;;;;;;7.40;3.70;;;;;;;1.26;66.53;93847.31;5110352;28;20030;-38
2022/04/14 01:07:07;;;;;;;4.60;2.85;;;;;;;1.00;66.40;93821.31;5110321;28;20027;-38
2022/04/14 01:09:34;;;;;;;7.07;4.47;;;;;;;1.05;67.40;93845.88;5110407;28;20507;-37
2022/04/14 01:11:59;;;;;;;13.77;9.05;;;;;;;1.02;68.04;93837.94;5110421;28;20020;-37
2022/04/14 01:14:25;;;;;;;24.63;14.68;;;;;;;1.01;67.68;93848.06;5096037;28;20039;-38
2022/04/14 01:16:50;;;;;;;23.42;14.52;;;;;;;1.13;67.59;93844.22;5090184;28;20050;-37
2022/04/14 01:19:16;;;;;;;13.82;10.52;;;;;;;0.95;68.45;93849.97;5089930;28;20059;-37
2022/04/14 01:21:45;;;;;;;14.43;9.38;;;;;;;1.18;67.85;93845.50;5089907;28;20020;-38
2022/04/14 01:24:11;;;;;;;12.15;8.57;;;;;;;1.01;67.95;93850.00;5090142;28;20242;-37
2022/04/14 01:26:37;;;;;;;10.50;6.55;;;;;;;1.07;68.88;93842.66;5088659;28;20089;-38
2022/04/14 01:29:03;;;;;;;10.20;5.45;;;;;;;1.07;68.18;93846.13;5089753;28;20024;-37
2022/04/14 01:31:29;;;;;;;9.05;5.70;;;;;;;1.14;68.25;93850.41;5089657;28;20512;-37
2022/04/14 01:33:54;;;;;;;9.05;6.30;;;;;;;1.07;68.19;93846.13;5088640;28;20071;-38
2022/04/14 01:36:20;;;;;;;14.50;7.05;;;;;;;1.25;68.18;93845.09;5089710;28;20031;-38
2022/04/14 01:38:45;;;;;;;11.25;8.32;;;;;;;1.22;67.71;93843.31;5090885;28;20020;-38
2022/04/14 01:41:10;;;;;;;13.02;8.38;;;;;;;1.16;67.36;93843.28;5112131;28;20042;-38
2022/04/14 01:43:36;;;;;;;17.95;7.32;;;;;;;1.28;67.40;93846.84;5113774;28;20030;-38
2022/04/14 01:46:03;;;;;;;10.90;7.15;;;;;;;1.28;67.33;93850.31;5113718;28;20027;-38
2022/04/14 01:48:28;;;;;;;9.52;5.88;;;;;;;1.26;66.42;93841.88;5113590;28;20023;-37
2022/04/14 01:50:54;;;;;;;7.70;5.88;;;;;;;1.24;66.52;93841.63;5113612;28;20028;-38
2022/04/14 01:53:19;;;;;;;7.85;5.82;;;;;;;1.16;66.35;93846.00;5113801;28;20020;-38
2022/04/14 01:55:45;;;;;;;10.15;7.70;;;;;;;0.82;67.55;93852.28;5113762;28;20484;-38
2022/04/14 01:58:10;;;;;;;10.02;5.85;;;;;;;0.97;68.37;93850.22;5113438;28;20031;-38
2022/04/14 02:00:35;;;;;;;9.57;6.47;;;;;;;0.99;68.02;93852.47;5113407;28;20030;-37
2022/04/14 02:03:01;;;;;;;9.57;6.47;;;;;;;0.99;67.73;93844.31;5113356;28;20019;-37
2022/04/14 02:05:26;;;;;;;12.80;7.03;;;;;;;1.04;67.91;93849.06;5113347;28;20035;-37
2022/04/14 02:07:52;;;;;;;10.88;6.85;;;;;;;0.85;67.96;93848.59;5113261;28;20023;-38
2022/04/14 02:10:17;;;;;;;10.68;6.57;;;;;;;0.90;67.82;93847.91;5113518;28;20019;-37
2022/04/14 02:12:45;;;;;;;9.20;6.70;;;;;;;0.86;67.84;93857.50;5113116;28;20016;-37
2022/04/14 02:15:10;;;;;;;7.88;5.82;;;;;;;0.63;69.09;93859.19;5093538;28;20054;-38
2022/04/14 02:17:36;;;;;;;5.93;4.97;;;;;;;0.57;69.09;93852.94;5093011;28;20489;-37
2022/04/14 02:20:01;;;;;;;6.93;4.78;;;;;;;0.70;68.66;93861.50;5092619;28;20489;-37
2022/04/14 02:22:27;;;;;;;9.18;5.82;;;;;;;0.68;68.45;93856.56;5092693;28;20012;-38
2022/04/14 02:24:52;;;;;;;11.13;5.32;;;;;;;0.57;68.98;93855.66;5092554;28;20047;-38
2022/04/14 02:27:18;;;;;;;8.75;5.75;;;;;;;0.64;69.15;93847.84;5092490;28;20016;-37
2022/04/14 02:29:43;;;;;;;4.95;3.75;;;;;;;0.60;69.43;93849.28;5092530;28;20023;-37
2022/04/14 02:32:09;;;;;;;6.00;4.30;;;;;;;0.40;69.25;93843.81;5092621;28;20016;-37
2022/04/14 02:34:34;;;;;;;6.97;3.88;;;;;;;0.38;68.75;93847.03;5092468;28;20137;-38
2022/04/14 02:37:00;;;;;;;5.65;3.72;;;;;;;0.34;69.38;93846.47;5092608;28;20020;-37
2022/04/14 02:39:25;;;;;;;6.10;4.53;;;;;;;0.45;69.44;93838.47;5096842;28;20436;-37
2022/04/14 02:41:51;;;;;;;4.80;3.80;;;;;;;0.49;69.55;93835.56;5112534;28;20448;-37
2022/04/14 02:44:17;;;;;;;5.25;3.67;;;;;;;0.34;69.88;93838.31;5112432;28;20527;-37
2022/04/14 02:46:42;;;;;;;5.50;4.22;;;;;;;0.21;70.93;93843.31;5112598;28;20023;-37
2022/04/14 02:49:08;;;;;;;4.85;4.35;;;;;;;0.24;70.16;93841.63;5112536;28;20020;-37
2022/04/14 02:51:34;;;;;;;5.53;4.50;;;;;;;0.24;70.68;93838.94;5112688;28;20024;-37
2022/04/14 02:53:59;;;;;;;7.90;4.68;;;;;;;0.21;70.62;93837.16;5112302;28;20054;-38
2022/04/14 02:56:25;;;;;;;5.55;3.75;;;;;;;0.18;70.71;93832.66;5112302;28;20080;-37
2022/04/14 02:58:50;;;;;;;4.32;3.13;;;;;;;0.23;70.61;93832.00;5110935;28;20235;-37
2022/04/14 03:01:16;;;;;;;5.93;3.33;;;;;;;0.20;70.15;93839.09;5112577;28;20015;-37
2022/04/14 03:03:41;;;;;;;4.60;3.10;;;;;;;0.11;69.56;93835.78;5112234;28;20031;-37
2022/04/14 03:06:07;;;;;;;4.93;3.05;;;;;;;0.01;70.16;93837.84;5112063;28;20035;-37
2022/04/14 03:08:33;;;;;;;4.35;2.60;;;;;;;-0.16;70.32;93840.31;5112090;28;20030;-37
2022/04/14 03:10:58;;;;;;;5.22;2.90;;;;;;;-0.18;70.76;93839.28;5111912;28;20019;-38
2022/04/14 03:13:24;;;;;;;5.13;3.28;;;;;;;-0.13;70.92;93846.78;5107173;28;20039;-38
2022/04/14 03:15:50;;;;;;;6.57;4.53;;;;;;;-0.14;71.14;93856.88;5091837;28;20030;-37
2022/04/14 03:18:16;;;;;;;17.48;10.60;;;;;;;-0.12;70.81;93857.16;5091806;28;20103;-37
2022/04/14 03:20:42;;;;;;;20.98;11.48;;;;;;;-0.16;70.72;93853.13;5091789;28;20558;-37
2022/04/14 03:23:07;;;;;;;27.95;14.30;;;;;;;-0.21;70.79;93851.81;5091672;28;20546;-37
2022/04/14 03:25:32;;;;;;;19.38;11.82;;;;;;;-0.25;70.67;93853.97;5091675;28;20031;-38
2022/04/14 03:27:58;;;;;;;15.88;9.75;;;;;;;-0.12;71.32;93851.72;5091614;28;20038;-37
2022/04/14 03:30:23;;;;;;;18.80;9.38;;;;;;;-0.06;70.84;93854.50;5091355;28;20039;-37
2022/04/14 03:32:49;;;;;;;20.38;10.13;;;;;;;0.08;70.62;93861.91;5091468;28;20018;-37
2022/04/14 03:35:15;;;;;;;13.77;8.60;;;;;;;0.12;70.30;93861.69;5091204;28;20507;-37
2022/04/14 03:37:41;;;;;;;22.05;11.02;;;;;;;0.19;70.38;93866.75;5091110;28;20024;-37
2022/04/14 03:40:07;;;;;;;13.07;8.73;;;;;;;0.21;70.04;93865.03;5101064;28;20031;-37
2022/04/14 03:42:35;;;;;;;17.85;9.50;;;;;;;0.13;70.37;93871.34;5111362;28;20032;-37
2022/04/14 03:45:01;;;;;;;15.00;9.27;;;;;;;-0.10;71.35;93860.13;5111643;28;20077;-37
2022/04/14 03:47:26;;;;;;;15.50;8.07;;;;;;;-0.14;70.68;93866.97;5111656;28;20080;-37
2022/04/14 03:49:52;;;;;;;10.30;6.65;;;;;;;-0.26;71.19;93866.03;5111549;28;20034;-37
2022/04/14 03:52:18;;;;;;;10.63;6.43;;;;;;;-0.14;71.28;93869.69;5111224;28;20015;-37
2022/04/14 03:54:44;;;;;;;12.27;6.07;;;;;;;-0.20;71.48;93860.72;5111195;28;20027;-37
2022/04/14 03:57:10;;;;;;;7.15;4.57;;;;;;;-0.38;72.17;93860.91;5111128;28;20024;-37
2022/04/14 03:59:36;;;;;;;14.32;6.25;;;;;;;-0.46;72.25;93868.69;5111197;28;20020;-37
2022/04/14 04:02:01;;;;;;;6.85;5.38;;;;;;;-0.50;72.36;93859.22;5110641;28;20023;-37
2022/04/14 04:04:27;;;;;;;16.95;5.07;;;;;;;-0.35;71.99;93863.44;5111188;28;20515;-37
2022/04/14 04:06:52;;;;;;;15.20;8.95;;;;;;;-0.39;72.14;93868.28;5110980;28;20030;-37
2022/04/14 04:09:18;;;;;;;8.25;6.50;;;;;;;-0.44;72.52;93871.69;5111125;28;20019;-37
2022/04/14 04:11:43;;;;;;;12.50;6.68;;;;;;;-0.34;72.29;93875.78;5110877;28;20450;-38
2022/04/14 04:14:10;;;;;;;11.93;7.18;;;;;;;-0.23;71.51;93870.53;5100057;28;20031;-37
2022/04/14 04:16:35;;;;;;;14.32;8.52;;;;;;;-0.09;71.17;93869.75;5090737;28;20077;-37
2022/04/14 04:19:00;;;;;;;9.27;6.10;;;;;;;-0.12;71.17;93873.44;5090438;28;20028;-37
2022/04/14 04:21:27;;;;;;;12.93;6.97;;;;;;;-0.04;70.79;93871.06;5090801;28;20052;-37
2022/04/14 04:23:52;;;;;;;12.45;7.88;;;;;;;0.18;70.20;93882.28;5090329;28;20020;-37
2022/04/14 04:26:18;;;;;;;16.80;8.35;;;;;;;0.18;70.33;93876.09;5090688;28;20024;-37
2022/04/14 04:28:43;;;;;;;11.80;7.03;;;;;;;0.11;70.66;93879.22;5090440;28;20020;-37
2022/04/14 04:31:09;;;;;;;20.95;8.43;;;;;;;0.05;71.48;93878.34;5090226;28;20082;-37
2022/04/14 04:33:34;;;;;;;16.33;9.27;;;;;;;0.05;71.88;93886.50;5090654;28;20031;-37
2022/04/14 04:35:59;;;;;;;32.42;17.75;;;;;;;0.30;71.37;93891.34;5094874;28;20511;-37
2022/04/14 04:38:25;;;;;;;28.05;16.90;;;;;;;0.56;70.23;93892.22;5110632;28;20024;-37
2022/04/14 04:40:50;;;;;;;32.78;18.40;;;;;;;0.57;69.90;93890.97;5094117;28;20028;-37
2022/04/14 04:43:16;;;;;;;33.20;19.38;;;;;;;0.96;68.15;93899.63;5090356;28;20028;-37
2022/04/14 04:45:42;;;;;;;21.05;12.00;;;;;;;1.35;68.29;93911.69;5090201;28;20028;-37
2022/04/14 04:48:08;;;;;;;16.80;10.15;;;;;;;1.61;67.32;93906.28;5090507;28;20397;-37
2022/04/14 04:50:33;;;;;;;18.83;11.57;;;;;;;1.56;66.64;93913.16;5090489;28;20097;-37
2022/04/14 04:52:59;;;;;;;19.25;12.30;;;;;;;1.53;67.31;93912.16;5090419;28;20032;-37
2022/04/14 04:55:24;;;;;;;18.05;11.13;;;;;;;1.49;68.22;93908.16;5090536;28;20481;-37
2022/04/14 04:57:50;;;;;;;40.75;22.60;;;;;;;1.53;67.49;93914.13;5090321;28;20020;-37
2022/04/14 05:00:15;;;;;;;35.85;22.45;;;;;;;1.49;67.84;93911.59;5090380;28;20512;-37
2022/04/14 05:02:41;;;;;;;28.20;17.00;;;;;;;1.40;68.31;93916.47;5090405;28;20523;-37
2022/04/14 05:05:07;;;;;;;18.48;12.52;;;;;;;1.60;68.34;93919.16;5089220;28;20114;-37
2022/04/14 05:07:32;;;;;;;24.67;15.55;;;;;;;1.56;67.59;93918.59;5089896;28;20024;-37
2022/04/14 05:09:58;;;;;;;22.77;15.35;;;;;;;1.82;67.64;93918.63;5090370;28;20568;-37
2022/04/14 05:12:23;;;;;;;21.65;14.80;;;;;;;1.87;66.94;93920.66;5089868;28;20024;-37
2022/04/14 05:14:48;;;;;;;30.85;17.52;;;;;;;1.98;67.34;93932.41;5092269;28;20020;-37
2022/04/14 05:17:14;;;;;;;24.83;16.55;;;;;;;2.08;67.23;93925.53;5094179;28;20081;-37
2022/04/14 05:19:39;;;;;;;26.48;15.00;;;;;;;2.12;67.39;93928.06;5093889;28;20473;-37
2022/04/14 05:22:05;;;;;;;38.35;25.25;;;;;;;2.14;66.94;93931.78;5094116;28;20020;-37
2022/04/14 05:24:31;;;;;;;43.22;29.13;;;;;;;2.35;67.74;93932.44;5094025;28;20024;-38
2022/04/14 05:26:56;;;;;;;136.88;52.53;;;;;;;2.49;66.29;93928.09;5093991;28;20039;-37
2022/04/14 05:29:22;;;;;;;128.85;47.33;;;;;;;2.65;66.41;93922.00;5093633;28;20085;-37
2022/04/14 05:31:48;;;;;;;93.38;40.67;;;;;;;2.87;65.24;93928.34;5094409;28;20111;-37
2022/04/14 05:34:13;;;;;;;47.30;21.73;;;;;;;3.16;65.31;93926.50;5113943;27;20047;-37
2022/04/14 05:36:39;;;;;;;41.00;21.75;;;;;;;3.50;64.79;93926.16;5114169;28;20019;-37
2022/04/14 05:39:04;;;;;;;42.83;21.70;;;;;;;4.09;63.80;93920.59;5112642;27;20420;-38
2022/04/14 05:41:29;;;;;;;57.22;30.13;;;;;;;4.58;62.21;93913.63;5093273;28;20508;-38
2022/04/14 05:43:56;;;;;;;33.55;16.80;;;;;;;5.18;61.40;93922.94;5093679;28;20493;-37
2022/04/14 05:46:22;;;;;;;23.55;15.70;;;;;;;5.59;60.59;93926.53;5093472;28;20059;-38
2022/04/14 05:48:48;;;;;;;29.65;17.55;;;;;;;5.84;60.24;93928.19;5093338;28;20556;-38
2022/04/14 05:51:14;;;;;;;26.15;15.57;;;;;;;6.03;59.89;93925.59;5093499;28;20077;-38
2022/04/14 05:53:39;;;;;;;6.93;4.25;;;;;;;6.08;59.14;93939.28;5093540;28;20432;-38
2022/04/14 05:56:05;;;;;;;3.72;3.00;;;;;;;5.71;59.75;93927.97;5093109;28;20024;-38
2022/04/14 05:58:31;;;;;;;5.72;3.75;;;;;;;5.99;59.92;93933.34;5093395;28;20034;-38
2022/04/14 06:00:56;;;;;;;6.38;3.42;;;;;;;6.45;60.39;93925.06;5093374;28;20646;-38
2022/04/14 06:03:21;;;;;;;6.45;4.25;;;;;;;7.00;58.38;93912.81;5093278;28;20409;-38
2022/04/14 06:05:47;;;;;;;6.40;4.47;;;;;;;8.16;55.54;93922.44;5092961;28;20573;-38
2022/04/14 06:08:13;;;;;;;14.25;5.97;;;;;;;8.84;52.73;93923.66;5093170;28;20028;-38
2022/04/14 06:10:38;;;;;;;8.63;4.88;;;;;;;9.61;51.73;93924.28;5093228;28;20028;-38
2022/04/14 06:13:04;;;;;;;7.32;5.20;;;;;;;10.58;48.46;93920.47;5092355;28;20497;-39
2022/04/14 06:15:31;;;;;;;7.93;4.13;;;;;;;11.56;45.30;93921.25;5092743;28;20028;-39
2022/04/14 06:17:57;;;;;;;7.72;4.50;;;;;;;13.29;42.18;93923.13;5092745;28;20520;-39
2022/04/14 06:20:22;;;;;;;6.15;4.57;;;;;;;14.60;38.86;93920.91;5092953;28;20016;-39
2022/04/14 06:22:48;;;;;;;4.05;3.65;;;;;;;15.46;36.80;93916.47;5091460;28;20024;-39
2022/04/14 06:25:16;;;;;;;9.05;5.30;;;;;;;15.94;35.22;93917.66;5092255;28;20052;-39
2022/04/14 06:27:45;;;;;;;7.83;5.80;;;;;;;16.15;35.17;93918.00;5092552;28;20031;-39
2022/04/14 06:30:11;;;;;;;;;;;;;;;16.17;34.36;93928.56;5111588;28;20029;-39
2022/04/14 06:32:38;;;;;;;11.10;8.60;;;;;;;15.66;35.19;93929.25;5112836;28;19999;-39
2022/04/14 06:35:04;;;;;;;14.75;9.68;;;;;;;15.56;36.31;93934.00;5113109;28;20027;-39
2022/04/14 06:37:29;;;;;;;12.55;8.38;;;;;;;15.45;36.25;93923.34;5112755;28;20115;-39
2022/04/14 06:39:55;;;;;;;9.00;7.20;;;;;;;15.53;33.94;93924.00;5104612;28;20095;-39
2022/04/14 06:42:23;;;;;;;11.85;7.22;;;;;;;15.63;33.51;93925.59;5092188;28;20398;-38
2022/04/14 06:44:49;;;;;;;5.25;4.35;;;;;;;15.53;31.52;93926.78;5092195;28;20402;-39
2022/04/14 06:47:14;;;;;;;8.05;3.13;;;;;;;16.15;25.42;93920.81;5092265;28;20035;-38
2022/04/14 06:49:39;;;;;;;7.22;3.20;;;;;;;16.08;25.30;93926.44;5092430;28;20509;-39
2022/04/14 06:52:05;;;;;;;4.82;2.67;;;;;;;16.06;24.02;93923.50;5092088;28;20053;-38
2022/04/14 06:54:30;;;;;;;3.10;2.38;;;;;;;16.91;22.49;93928.25;5092088;28;20020;-39
2022/04/14 06:56:56;;;;;;;3.85;2.20;;;;;;;17.76;23.40;93922.25;5092025;28;20024;-39
2022/04/14 06:59:21;;;;;;;3.53;2.83;;;;;;;18.62;21.64;93925.16;5091865;28;20031;-39
2022/04/14 07:01:47;;;;;;;3.22;2.40;;;;;;;18.71;20.00;93918.06;5091911;28;20020;-39
2022/04/14 07:04:12;;;;;;;4.60;2.53;;;;;;;19.40;21.32;93929.25;5092089;28;20024;-39
2022/04/14 07:06:38;;;;;;;3.25;2.70;;;;;;;20.44;19.13;93930.00;5091815;28;20028;-39
2022/04/14 07:09:03;;;;;;;3.53;2.38;;;;;;;21.72;18.86;93925.44;5091709;28;20020;-39
2022/04/14 07:11:29;;;;;;;11.85;3.53;;;;;;;21.84;18.85;93929.72;5091042;28;20012;-39
2022/04/14 07:13:54;;;;;;;3.42;2.47;;;;;;;23.55;17.29;93924.72;5091083;28;20097;-40
2022/04/14 07:16:19;;;;;;;2.45;2.00;;;;;;;24.02;15.73;93914.50;5091710;28;20397;-37
2022/04/14 07:18:45;;;;;;;4.90;2.78;;;;;;;23.88;15.45;93925.06;5091897;28;20024;-36
2022/04/14 07:21:10;;;;;;;3.70;2.60;;;;;;;23.99;15.43;93932.69;5091484;28;20532;-39
2022/04/14 07:23:36;;;;;;;4.05;2.47;;;;;;;22.49;15.86;93930.72;5091566;28;20020;-39
2022/04/14 07:26:02;;;;;;;2.80;2.15;;;;;;;23.06;15.41;93935.41;5106580;28;20027;-39
2022/04/14 07:28:27;;;;;;;5.90;2.08;;;;;;;23.97;16.71;93934.69;5111854;28;20031;-40
2022/04/14 07:30:53;;;;;;;2.33;2.13;;;;;;;25.44;14.80;93931.47;5111953;28;20457;-40
2022/04/14 07:33:18;;;;;;;3.90;2.40;;;;;;;25.45;14.33;93929.34;5111932;28;20031;-37
2022/04/14 07:35:45;;;;;;;2.17;1.88;;;;;;;26.18;14.47;93934.13;5111700;28;20462;-37
2022/04/14 07:38:11;;;;;;;4.10;2.00;;;;;;;25.73;13.47;93927.13;5111295;28;20026;-37
2022/04/14 07:40:36;;;;;;;3.30;2.33;;;;;;;24.71;13.85;93932.13;5097656;28;20127;-40
2022/04/14 07:43:02;;;;;;;2.55;2.30;;;;;;;24.28;14.75;93925.72;5090954;28;20491;-39
2022/04/14 07:45:28;;;;;;;3.88;2.58;;;;;;;24.63;15.74;93926.06;5091152;28;20032;-40
2022/04/14 07:47:53;;;;;;;3.15;2.35;;;;;;;25.05;15.63;93927.44;5091320;28;20540;-40
2022/04/14 07:50:20;;;;;;;3.03;2.22;;;;;;;25.88;14.18;93932.03;5091283;28;20048;-37
2022/04/14 07:52:47;;;;;;;3.00;2.22;;;;;;;26.18;13.12;93925.63;5090842;28;20052;-37
2022/04/14 07:55:23;;;;;;;2.75;1.98;;;;;;;26.41;13.24;93927.31;5090868;28;20485;-37
2022/04/14 07:57:50;;;;;;;2.42;2.03;;;;;;;26.41;12.89;93926.59;5091207;28;20031;-37
2022/04/14 08:00:16;;;;;;;2.30;2.10;;;;;;;25.84;13.16;93920.50;5091123;28;20019;-40
2022/04/14 08:03:01;;;;;;;2.85;2.58;;;;;;;25.63;13.09;93929.47;5090712;28;20487;-40
2022/04/14 08:05:34;;;;;;;2.85;2.30;;;;;;;26.02;14.51;93929.81;5091106;28;20416;-40
2022/04/14 08:08:03;;;;;;;2.08;1.88;;;;;;;27.19;13.48;93935.56;5090748;28;20020;-40
2022/04/14 08:10:29;;;;;;;2.35;1.80;;;;;;;27.60;11.99;93918.03;5090705;28;20024;-40
2022/04/14 08:12:55;;;;;;;2.95;2.30;;;;;;;28.32;12.27;93917.91;5090446;28;20024;-39
2022/04/14 08:15:21;;;;;;;2.47;2.20;;;;;;;29.16;13.02;93920.09;5090663;28;20550;-40
2022/04/14 08:17:46;;;;;;;2.15;1.67;;;;;;;28.90;11.61;93916.34;5090613;28;20020;-40
2022/04/14 08:20:13;;;;;;;2.40;1.80;;;;;;;27.91;11.21;93923.47;5090485;28;20028;-39
2022/04/14 08:22:52;;;;;;;5.28;1.85;;;;;;;27.50;11.88;93920.47;5108797;28;20099;-39
2022/04/14 08:25:24;;;;;;;7.18;2.00;;;;;;;27.15;13.84;93923.31;5111184;28;20077;-40
2022/04/14 08:27:50;;;;;;;2.42;1.90;;;;;;;26.33;13.05;93916.38;5110723;28;20489;-39
2022/04/14 08:30:17;;;;;;;3.88;2.35;;;;;;;26.25;14.33;93918.13;5110806;28;20027;-39
2022/04/14 08:32:44;;;;;;;2.72;1.95;;;;;;;26.42;15.01;93920.31;5110618;28;20020;-40
2022/04/14 08:35:11;;;;;;;4.40;1.80;;;;;;;25.48;12.91;93916.78;5111046;28;20115;-40
2022/04/14 08:37:38;;;;;;;2.50;1.75;;;;;;;26.65;12.13;93908.53;5111019;28;20032;-39
2022/04/14 08:40:09;;;;;;;2.70;2.20;;;;;;;26.72;14.98;93913.06;5099950;28;20024;-39
2022/04/14 08:42:39;;;;;;;2.00;1.80;;;;;;;27.09;13.25;93914.56;5090094;28;20066;-39
2022/04/14 08:45:11;;;;;;;4.03;2.08;;;;;;;27.86;13.38;93898.41;5090271;28;20023;-39
2022/04/14 08:47:39;;;;;;;2.33;1.80;;;;;;;28.78;15.16;93906.69;5091106;28;20042;-39
2022/04/14 08:50:06;;;;;;;2.92;2.33;;;;;;;29.56;13.47;93902.84;5094722;28;20024;-40
2022/04/14 08:52:34;;;;;;;3.20;1.92;;;;;;;29.36;13.35;93893.66;5094263;28;20085;-38
2022/04/14 08:55:04;;;;;;;3.30;1.80;;;;;;;29.98;10.82;93901.25;5094384;28;20027;-40
2022/04/14 08:57:30;;;;;;;2.17;1.98;;;;;;;28.94;11.60;93904.38;5094346;28;20060;-40
2022/04/14 08:59:57;;;;;;;2.00;1.80;;;;;;;29.11;11.02;93894.97;5094481;28;20022;-39
2022/04/14 09:02:23;;;;;;;2.88;1.95;;;;;;;29.67;13.28;93902.44;5094435;28;20050;-40
2022/04/14 09:04:51;;;;;;;2.95;1.92;;;;;;;28.78;12.95;93898.19;5093143;28;20086;-40
2022/04/14 09:07:17;;;;;;;2.75;1.70;;;;;;;27.54;11.47;93900.78;5094448;28;20070;-39
2022/04/14 09:09:46;;;;;;;2.25;2.05;;;;;;;27.04;13.80;93894.59;5094108;28;20504;-40
2022/04/14 09:12:12;;;;;;;3.28;1.90;;;;;;;26.48;12.15;93886.56;5093890;28;20024;-40
2022/04/14 09:14:38;;;;;;;3.85;2.20;;;;;;;26.79;13.00;93894.25;5093993;28;20028;-40
2022/04/14 09:17:04;;;;;;;2.78;1.80;;;;;;;27.72;12.59;93892.97;5096034;28;20063;-40
2022/04/14 09:19:31;;;;;;;8.68;5.95;;;;;;;28.31;11.62;93888.03;5113877;28;20035;-40
2022/04/14 09:22:03;;;;;;;4.22;2.60;;;;;;;28.66;11.89;93877.88;5114207;28;20571;-40
2022/04/14 09:24:44;;;;;;;4.60;1.70;;;;;;;28.83;11.34;93879.84;5114196;28;20114;-41
2022/04/14 09:27:35;;;;;;;3.80;1.90;;;;;;;28.76;13.56;93878.22;5114475;28;20430;-40
2022/04/14 09:30:04;;;;;;;1.75;1.60;;;;;;;28.40;11.84;93875.56;5114369;28;20416;-40
2022/04/14 09:32:36;;;;;;;1.70;1.60;;;;;;;29.14;13.74;93876.59;5114281;28;20027;-39
2022/04/14 09:35:06;;;;;;;7.22;4.57;;;;;;;29.76;13.27;93863.59;5114168;28;20118;-40
2022/04/14 09:37:33;;;;;;;6.20;4.03;;;;;;;30.35;13.38;93860.28;5114114;28;20027;-41
2022/04/14 09:40:08;;;;;;;1.77;1.60;;;;;;;30.77;11.95;93858.56;5105350;28;20028;-41
2022/04/14 09:42:39;;;;;;;2.80;1.90;;;;;;;30.67;10.34;93859.03;5093280;28;20039;-38
2022/04/14 09:45:25;;;;;;;2.28;1.98;;;;;;;30.16;11.33;93861.91;5092421;28;20028;-40
2022/04/14 09:47:51;;;;;;;2.00;1.80;;;;;;;29.89;12.37;93859.72;5093365;28;20024;-41
2022/04/14 09:50:26;;;;;;;9.45;3.20;;;;;;;29.79;13.77;93862.28;5093591;28;20073;-40
2022/04/14 09:53:14;;;;;;;3.30;2.33;;;;;;;29.74;12.30;93861.44;5093116;28;20500;-40
2022/04/14 09:55:55;;;;;;;2.08;1.63;;;;;;;30.54;9.86;93847.97;5093242;28;20024;-40
2022/04/14 09:58:21;;;;;;;2.75;1.80;;;;;;;30.75;13.03;93849.97;5093162;28;20070;-41
2022/04/14 10:00:57;;;;;;;1.85;1.65;;;;;;;31.08;10.81;93843.66;5092642;28;20111;-40
2022/04/14 10:03:22;;;;;;;3.03;2.05;;;;;;;30.66;10.98;93845.44;5093311;28;20154;-40
2022/04/14 10:05:50;;;;;;;2.70;1.50;;;;;;;30.61;11.71;93838.91;5093047;28;20537;-40
2022/04/14 10:08:16;;;;;;;3.17;2.00;;;;;;;30.19;10.95;93839.91;5093259;28;20028;-40
2022/04/14 10:10:49;;;;;;;2.53;1.63;;;;;;;28.91;12.87;93838.19;5092939;28;20513;-40
2022/04/14 10:13:18;;;;;;;2.10;1.60;;;;;;;29.27;13.59;93840.75;5094600;28;20101;-40
2022/04/14 10:15:48;;;;;;;5.80;5.20;;;;;;;29.39;13.15;93841.84;5113466;28;20015;-40
2022/04/14 10:18:16;;;;;;;2.80;1.75;;;;;;;29.05;11.51;93841.50;5113095;28;20028;-40
2022/04/14 10:20:43;;;;;;;4.93;1.80;;;;;;;29.14;13.03;93845.31;5113378;28;20492;-40
2022/04/14 10:23:10;;;;;;;3.63;1.80;;;;;;;29.54;13.55;93843.72;5113089;28;20024;-40
2022/04/14 10:25:38;;;;;;;3.50;1.90;;;;;;;28.81;11.71;93840.00;5112966;28;20024;-40
2022/04/14 10:28:06;;;;;;;2.40;1.52;;;;;;;27.83;11.13;93835.19;5112898;28;20030;-40
2022/04/14 10:30:31;;;;;;;1.75;1.55;;;;;;;26.91;11.75;93835.22;5113238;27;20096;-40
2022/04/14 10:32:57;;;;;;;1.30;1.20;;;;;;;26.21;13.39;93841.53;5113057;28;20401;-40
2022/04/14 10:35:25;;;;;;;3.45;1.60;;;;;;;26.09;13.02;93836.09;5113095;28;20476;-40
2022/04/14 10:38:25;;;;;;;1.92;1.30;;;;;;;25.94;14.00;93836.09;5113084;28;20163;-40
2022/04/14 10:40:58;;;;;;;2.38;1.70;;;;;;;26.58;15.59;93826.78;5096579;27;20101;-40
2022/04/14 10:43:25;;;;;;;31.27;13.63;;;;;;;27.52;14.61;93819.19;5091334;28;20069;-40
2022/04/14 10:45:55;;;;;;;4.88;3.05;;;;;;;28.65;15.73;93820.34;5091336;28;20024;-40
2022/04/14 10:48:35;;;;;;;5.93;4.57;;;;;;;28.91;16.28;93826.13;5092098;28;20035;-40
2022/04/14 10:51:27;;;;;;;2.33;1.67;;;;;;;29.77;14.67;93823.09;5092468;28;20020;-40
2022/04/14 10:54:01;;;;;;;3.25;1.42;;;;;;;30.47;11.42;93821.44;5092107;28;20032;-41
2022/04/14 10:56:33;;;;;;;5.55;2.35;;;;;;;30.50;12.64;93816.53;5092399;28;20024;-41
2022/04/14 10:58:59;;;;;;;8.65;2.00;;;;;;;31.02;12.71;93814.25;5092026;28;20581;-41
2022/04/14 11:01:46;;;;;;;1.80;1.45;;;;;;;31.15;13.98;93819.56;5091844;28;20055;-40
2022/04/14 11:04:21;;;;;;;2.83;2.23;;;;;;;30.68;13.56;93825.53;5091917;28;20125;-38
2022/04/14 11:06:47;;;;;;;2.70;1.73;;;;;;;30.29;12.73;93823.06;5091790;28;20511;-40
2022/04/14 11:09:49;;;;;;;2.42;1.67;;;;;;;30.47;13.40;93823.59;5091744;28;20024;-40
2022/04/14 11:12:24;;;;;;;5.78;4.70;;;;;;;30.18;12.47;93819.25;5090554;28;20097;-40
2022/04/14 11:14:50;;;;;;;6.78;4.28;;;;;;;29.59;13.42;93816.13;5091346;28;20109;-40
2022/04/14 11:17:33;;;;;;;2.15;1.95;;;;;;;28.72;10.95;93810.59;5091527;28;20032;-40
2022/04/14 11:20:22;;;;;;;2.92;1.75;;;;;;;27.35;12.61;93800.13;5091873;28;20028;-40
2022/04/14 11:23:15;;;;;;;1.75;1.65;;;;;;;27.31;14.77;93814.09;5090468;28;20046;-40
2022/04/14 11:25:41;;;;;;;2.97;1.75;;;;;;;27.64;15.73;93805.44;5091554;28;20024;-40
2022/04/14 11:28:20;;;;;;;5.47;2.53;;;;;;;28.12;13.41;93802.88;5091395;28;20511;-41
2022/04/14 11:30:46;;;;;;;4.38;2.08;;;;;;;27.55;15.15;93800.09;5091580;28;20530;-41
2022/04/14 11:33:32;;;;;;;3.17;1.80;;;;;;;27.22;15.45;93808.78;5095025;28;20061;-40
2022/04/14 11:36:17;;;;;;;7.07;2.22;;;;;;;26.52;13.41;93803.88;5112004;28;20430;-40